CSB6 weather

Montebello Seaplane Base
Montebello, Quebec, Canada

Public forecast

Using degrees Celsius for public forecast. Weather courtesy of forecast.io.

METAR (pilot weather report)

Closest report is Ottawa / Gatineau Airport, 25.5 nm (47.3 km) WSW. Retrieved 2019/05/24 11:00 UTC (5 minutes ago):

CYND 241100Z 32010G16KT 15SM FEW020 SCT045 14/12 A2985 RMK SC1SC3 SLP110 DENSITY ALT 300FT

TAF (pilot weather forecast)

Forecast is more than 12 hours old.

Closest forecast is Ottawa / Gatineau Airport, 25.5 nm (47.3 km) WSW. Retrieved 2019/05/23 18:00 UTC (17 hours ago):

TAF CYND 231738Z 2318/2401 12010KT P6SM SCT040 BKN140 OVC220 FM232000 12008KT P6SM -SHRA BKN025 OVC100 TEMPO 2320/2323 4SM SHRA BR OVC015 PROB40 2320/2323 VRB20G30KT 1SM +TSRA BR BKN008 OVC015CB FM232300 26012G22KT P6SM BKN025 TEMPO 2323/2401 P6SM -SHRA OVC020 RMK NXT FCST WILL BE ISSUED AT 241245Z